M I D A S
Marine Information and Data Acquisition System
Tripno 1342 of the Zeeleeuw from 2007-08-14 07:07:09 to 2007-08-14 11:50:33
Back to CruiseResearch ActivitiesStationsMapUnderway DataData graphs

EquipmentUnitsComment
TimeDGPSUTC
LatitudeDGPSDM.mWGS84
LongitudeDGPSDM.mWGS84
HeadingGyrodeg 
SOGDGPSknotsSpeed over ground
COGDGPSdegCourse over ground
DepthEcho soundermeters200 kHz
Missing or incorrect values are displayed as -999
Navigation data collected by the RV Zeeleeuw from 2007-08-14 06:29:17 to 2007-08-14 11:46:07
Time Latitude Longitude Heading SOG COG Depth
2007-08-14 06:30:22 51°13.603 2°56.098 126.2 -999 217 -999
2007-08-14 06:31:22 51°13.603 2°56.097 126.2 -999 220 -999
2007-08-14 06:32:22 51°13.602 2°56.098 126.2 -999 182 -999
2007-08-14 06:33:22 51°13.602 2°56.098 126.2 -999 293 -999
2007-08-14 06:34:22 51°13.602 2°56.098 126.2 -999 131 -999
2007-08-14 06:35:22 51°13.602 2°56.098 126.2 -999 235 -999
2007-08-14 06:36:22 51°13.602 2°56.098 126.2 -999 270 -999
2007-08-14 06:37:22 51°13.601 2°56.099 126.2 -999 41 -999
2007-08-14 06:38:22 51°13.602 2°56.099 126.2 -999 45 -999
2007-08-14 06:39:22 51°13.602 2°56.099 126.2 -999 69 -999
2007-08-14 06:40:22 51°13.602 2°56.099 126.2 -999 60 -999
2007-08-14 06:41:22 51°13.601 2°56.099 126.2 -999 49 -999
2007-08-14 06:42:22 51°13.601 2°56.099 126.2 -999 274 -999
2007-08-14 06:43:22 51°13.601 2°56.099 126.2 -999 326 -999
2007-08-14 06:44:22 51°13.601 2°56.099 126.2 -999 250 -999
2007-08-14 06:45:22 51°13.602 2°56.1 126.2 -999 45 -999
2007-08-14 06:46:22 51°13.601 2°56.1 126.2 -999 28 -999
2007-08-14 06:47:22 51°13.601 2°56.101 126.2 -999 86 -999
2007-08-14 06:48:22 51°13.601 2°56.101 126.2 -999 72 -999
2007-08-14 06:49:22 51°13.602 2°56.1 126.2 -999 12 -999
2007-08-14 06:50:21 51°13.602 2°56.1 126.2 -999 268 6.2
2007-08-14 06:51:21 51°13.603 2°56.099 126.2 -999 165 6.1
2007-08-14 06:52:21 51°13.604 2°56.098 126.3 -999 221 6.2
2007-08-14 06:53:21 51°13.603 2°56.098 126.3 -999 334 6.2
2007-08-14 06:54:21 51°13.602 2°56.098 126.3 -999 197 6.1
2007-08-14 06:55:22 51°13.602 2°56.098 126.3 -999 341 6.2
2007-08-14 06:56:21 51°13.603 2°56.097 126.2 -999 22 6.1
2007-08-14 06:57:21 51°13.603 2°56.097 126.2 -999 1 6.2
2007-08-14 06:58:21 51°13.605 2°56.094 126.2 -999 209 6.1
2007-08-14 06:59:21 51°13.603 2°56.096 126.2 -999 216 6.1
2007-08-14 07:00:21 51°13.603 2°56.098 126.2 -999 74 6.1
2007-08-14 07:01:21 51°13.602 2°56.099 126.2 -999 195 6.1
2007-08-14 07:02:22 51°13.603 2°56.099 126.2 0.1 153 6.1
2007-08-14 07:03:21 51°13.602 2°56.099 126.4 -999 166 6
2007-08-14 07:04:21 51°13.602 2°56.1 126.3 -999 135 6.1
2007-08-14 07:05:21 51°13.602 2°56.1 124 -999 170 6
2007-08-14 07:06:21 51°13.601 2°56.1 118.4 0.1 190 6.4
2007-08-14 07:07:21 51°13.604 2°56.085 111.6 2 294 7
2007-08-14 07:08:22 51°13.624 2°56.003 115.3 4.1 292 -999
2007-08-14 07:09:21 51°13.656 2°55.906 122.7 3.5 300 9.3
2007-08-14 07:10:21 51°13.677 2°55.84 113.2 2.3 293 9.2
2007-08-14 07:11:22 51°13.687 2°55.788 100.5 1.7 282 9.3
2007-08-14 07:12:21 51°13.691 2°55.748 90.7 1.4 278 10
2007-08-14 07:13:21 51°13.698 2°55.747 58.3 0.3 354 11.2
2007-08-14 07:14:21 51°13.694 2°55.73 40.5 0.8 240 11.4
2007-08-14 07:15:21 51°13.7 2°55.726 13.4 0.2 291 11.5
2007-08-14 07:16:21 51°13.7 2°55.72 356.8 0.1 244 12.5
2007-08-14 07:17:21 51°13.699 2°55.717 350.5 0.1 284 12.8
2007-08-14 07:18:21 51°13.701 2°55.714 349.7 0.2 313 13.2
2007-08-14 07:19:21 51°13.707 2°55.71 350.2 0.8 345 10.9
2007-08-14 07:20:22 51°13.717 2°55.705 347.2 0.1 293 10.5
2007-08-14 07:21:21 51°13.718 2°55.703 346.2 0.2 329 10.5
2007-08-14 07:22:22 51°13.722 2°55.7 344.7 0.3 321 10.4
2007-08-14 07:23:21 51°13.722 2°55.697 341.1 0.5 163 10.6
2007-08-14 07:24:21 51°13.717 2°55.699 341.9 0.2 176 10.4
2007-08-14 07:25:21 51°13.718 2°55.698 345.4 0.5 339 10.5
2007-08-14 07:26:21 51°13.726 2°55.692 342.5 0.5 339 10.7
2007-08-14 07:27:21 51°13.733 2°55.69 342.5 0.4 343 10.5
2007-08-14 07:28:21 51°13.738 2°55.686 344.8 0.5 341 9.8
2007-08-14 07:29:22 51°13.775 2°55.665 341.5 5.1 339 9.9
2007-08-14 07:30:21 51°13.892 2°55.589 339.9 9.2 337 9.6
2007-08-14 07:31:22 51°14.04 2°55.483 338.2 9.6 336 9.3
2007-08-14 07:32:21 51°14.185 2°55.369 335.4 10.2 329 9.4
2007-08-14 07:33:21 51°14.311 2°55.185 312.7 10.6 308 9.5
2007-08-14 07:34:21 51°14.403 2°54.93 296.5 12 291 9.3
2007-08-14 07:35:21 51°14.427 2°54.593 272.3 13.3 266 9.5
2007-08-14 07:36:22 51°14.354 2°54.26 244.3 13.3 241 7.8
2007-08-14 07:37:21 51°14.246 2°53.957 242.4 13.5 241 7.7
2007-08-14 07:38:22 51°14.155 2°53.623 250.4 13.6 246 8
2007-08-14 07:39:21 51°14.052 2°53.308 242.6 13.7 240 8.3
2007-08-14 07:40:21 51°13.944 2°52.988 245.1 13.8 244 8.7
2007-08-14 07:41:21 51°13.849 2°52.654 249.7 13.9 246 8.9
2007-08-14 07:42:21 51°13.751 2°52.319 247.5 13.9 244 9.1
2007-08-14 07:43:22 51°13.64 2°51.987 244.5 14 244 9.3
2007-08-14 07:44:21 51°13.554 2°51.673 247.1 11.9 248 9.5
2007-08-14 07:45:22 51°13.494 2°51.394 253.3 10.1 250 9.7
2007-08-14 07:46:21 51°13.464 2°51.199 269.7 6 264 9.9
2007-08-14 07:47:22 51°13.457 2°51.125 253.6 0.2 343 9.9
2007-08-14 07:48:21 51°13.454 2°51.112 270.7 1.1 259 9.9
2007-08-14 07:49:22 51°13.45 2°51.085 280.8 0.4 224 10
2007-08-14 07:50:21 51°13.442 2°51.076 296.5 0.7 230 9.9
2007-08-14 07:51:21 51°13.435 2°51.057 305.9 0.9 245 9.9
2007-08-14 07:52:21 51°13.429 2°51.033 307.7 1 254 10
2007-08-14 07:53:21 51°13.425 2°51.004 304.1 1.1 259 10
2007-08-14 07:54:21 51°13.422 2°50.974 300.7 1.1 263 9.9
2007-08-14 07:55:21 51°13.419 2°50.945 299.9 1.1 264 10
2007-08-14 07:56:22 51°13.419 2°50.916 301.7 1.1 268 10.1
2007-08-14 07:57:21 51°13.418 2°50.888 303.9 1.1 268 10.1
2007-08-14 07:58:21 51°13.417 2°50.86 307.3 1.1 267 10
2007-08-14 07:59:21 51°13.416 2°50.832 308.9 1 268 10
2007-08-14 08:00:21 51°13.416 2°50.804 309.6 1.3 275 10
2007-08-14 08:01:21 51°13.414 2°50.729 265.5 3.8 255 9.8
2007-08-14 08:02:21 51°13.371 2°50.645 206.6 4.6 207 10.1
2007-08-14 08:03:22 51°13.314 2°50.666 117.5 3.2 114 10.2
2007-08-14 08:04:21 51°13.345 2°50.762 63 7.3 59 10.1
2007-08-14 08:05:22 51°13.432 2°50.993 64.6 11 60 9.9
2007-08-14 08:06:21 51°13.526 2°51.241 64.5 11.2 60 9.7
2007-08-14 08:07:21 51°13.621 2°51.497 62.9 11.3 59 9.7
2007-08-14 08:08:21 51°13.709 2°51.763 66.8 11.3 63 9.6
2007-08-14 08:09:22 51°13.798 2°52.032 64.8 11.3 61 9.5
2007-08-14 08:10:22 51°13.885 2°52.298 66.7 11.3 63 9.5
2007-08-14 08:11:21 51°13.971 2°52.559 67.1 11.3 63 9.5
2007-08-14 08:12:22 51°14.055 2°52.834 67.6 11.4 64 9.4
2007-08-14 08:13:21 51°14.145 2°53.094 62.4 11.4 58 9.2
2007-08-14 08:14:21 51°14.236 2°53.359 65 11.4 60 8.8
2007-08-14 08:15:21 51°14.335 2°53.618 61.6 11.3 50 8.7
2007-08-14 08:16:21 51°14.497 2°53.769 24.1 11.7 11 8.8
2007-08-14 08:17:22 51°14.673 2°53.65 324.9 12.3 308 9.1
2007-08-14 08:18:21 51°14.716 2°53.328 275.7 13.1 266 8.4
2007-08-14 08:19:22 51°14.704 2°52.969 274.6 13.5 267 8.1
2007-08-14 08:20:21 51°14.699 2°52.615 275.9 13.7 269 8.3
2007-08-14 08:21:22 51°14.699 2°52.244 278.5 13.8 271 8.4
2007-08-14 08:22:21 51°14.701 2°51.883 278 13.9 271 8.9
2007-08-14 08:23:21 51°14.716 2°51.519 286.7 13.7 281 9.3
2007-08-14 08:24:21 51°14.755 2°51.162 286.5 12.3 278 9.9
2007-08-14 08:25:22 51°14.739 2°50.944 250.9 6 244 10.4
2007-08-14 08:26:21 51°14.708 2°50.858 228.7 1.6 253 10.5
2007-08-14 08:27:21 51°14.68 2°50.796 216.1 4 225 10.5
2007-08-14 08:28:22 51°14.619 2°50.68 241.2 6.6 243 10.3
2007-08-14 08:29:21 51°14.585 2°50.543 252.3 4.8 250 10.4
2007-08-14 08:30:21 51°14.562 2°50.442 251.6 3.5 250 10.5
2007-08-14 08:31:21 51°14.547 2°50.363 256.5 2.9 253 10.5
2007-08-14 08:32:22 51°14.533 2°50.292 251.4 2.7 252 10.4
2007-08-14 08:33:22 51°14.517 2°50.226 243.7 2.7 248 10.4
2007-08-14 08:34:21 51°14.499 2°50.16 242.1 2.8 248 10.4
2007-08-14 08:35:22 51°14.481 2°50.088 246.7 2.9 249 10.6
2007-08-14 08:36:21 51°14.464 2°50.016 245.8 3 248 10.5
2007-08-14 08:37:22 51°14.444 2°49.946 238.2 2.9 244 10.6
2007-08-14 08:38:21 51°14.423 2°49.878 236.9 2.9 243 10.7
2007-08-14 08:39:22 51°14.402 2°49.81 233.7 2.8 243 10.7
2007-08-14 08:40:21 51°14.38 2°49.746 230.8 2.8 241 10.7
2007-08-14 08:41:22 51°14.359 2°49.682 229.4 2.7 243 10.9
2007-08-14 08:42:22 51°14.339 2°49.619 232.5 2.7 243 10.9
2007-08-14 08:43:21 51°14.319 2°49.556 233.7 2.8 244 10.8
2007-08-14 08:44:22 51°14.298 2°49.488 235 2.8 243 10.8
2007-08-14 08:45:21 51°14.278 2°49.424 231.5 2.8 242 10.7
2007-08-14 08:46:22 51°14.255 2°49.358 227.6 2.8 240 10.8
2007-08-14 08:47:21 51°14.232 2°49.297 224.1 2.7 239 10.8
2007-08-14 08:48:22 51°14.208 2°49.234 222.6 2.7 239 10.8
2007-08-14 08:49:22 51°14.184 2°49.175 219.2 2.6 236 10.7
2007-08-14 08:50:21 51°14.161 2°49.116 221.4 2.7 238 10.8
2007-08-14 08:51:22 51°14.137 2°49.055 225.1 2.7 240 10.7
2007-08-14 08:52:22 51°14.114 2°48.99 232.8 2.9 242 10.8
2007-08-14 08:53:22 51°14.091 2°48.92 237.2 3.2 244 10.8
2007-08-14 08:54:21 51°14.072 2°48.835 257.9 3.6 256 10.9
2007-08-14 08:55:22 51°14.067 2°48.739 286.6 3.5 275 10.9
2007-08-14 08:56:21 51°14.082 2°48.654 317 3.3 297 10.8
2007-08-14 08:57:22 51°14.11 2°48.591 340.6 2.4 307 11
2007-08-14 08:58:21 51°14.129 2°48.544 335.8 2 299 11
2007-08-14 08:59:21 51°14.142 2°48.496 323.1 2 288 11
2007-08-14 09:00:22 51°14.148 2°48.445 305 1.9 276 10.9
2007-08-14 09:01:22 51°14.147 2°48.398 288.8 1.7 265 11
2007-08-14 09:02:22 51°14.145 2°48.356 277.9 1.5 264 11
2007-08-14 09:03:21 51°14.142 2°48.319 272.5 1.4 261 11
2007-08-14 09:04:22 51°14.139 2°48.283 271.2 1.3 268 11.1
2007-08-14 09:05:22 51°14.138 2°48.25 277 1.2 268 11.1
2007-08-14 09:06:21 51°14.137 2°48.219 283.1 1.1 268 11.1
2007-08-14 09:07:22 51°14.135 2°48.19 286.8 1.1 264 11.1
2007-08-14 09:08:22 51°14.133 2°48.162 291.2 1 263 11
2007-08-14 09:09:22 51°14.131 2°48.135 293.2 1 261 11.2
2007-08-14 09:10:21 51°14.13 2°48.109 294.6 1.6 275 11.1
2007-08-14 09:11:22 51°14.168 2°47.997 326.6 5.5 314 11.1
2007-08-14 09:12:21 51°14.23 2°47.939 2.7 3.7 346 11.1
2007-08-14 09:13:22 51°14.28 2°47.941 31.8 2.5 13 11.2
2007-08-14 09:14:21 51°14.316 2°47.952 26.3 2.3 7 11.1
2007-08-14 09:15:22 51°14.356 2°47.966 35.6 2.5 21 11.3
2007-08-14 09:16:22 51°14.387 2°48.006 59.6 2.3 56 11.2
2007-08-14 09:17:22 51°14.397 2°48.068 83.5 2.7 90 11.4
2007-08-14 09:18:22 51°14.392 2°48.144 90.9 2.9 96 11.3
2007-08-14 09:19:21 51°14.388 2°48.215 91.5 2.7 96 11.3
2007-08-14 09:20:22 51°14.383 2°48.284 91.4 2.6 98 11.3
2007-08-14 09:21:22 51°14.377 2°48.351 91.4 2.5 97 11.4
2007-08-14 09:22:22 51°14.373 2°48.418 91.3 2.5 95 11.5
2007-08-14 09:23:22 51°14.366 2°48.486 91.4 2.6 96 11.5
2007-08-14 09:24:22 51°14.362 2°48.553 88.8 2.6 94 11.4
2007-08-14 09:25:22 51°14.358 2°48.621 88.3 2.6 92 11.5
2007-08-14 09:26:21 51°14.355 2°48.688 89.8 2.6 95 11.5
2007-08-14 09:27:22 51°14.352 2°48.757 89.8 2.6 96 11.4
2007-08-14 09:28:22 51°14.353 2°48.825 79.9 2.5 82 11.5
2007-08-14 09:29:22 51°14.358 2°48.892 83.4 2.6 85 11.4
2007-08-14 09:30:21 51°14.362 2°48.959 84 2.6 84 11.5
2007-08-14 09:31:22 51°14.366 2°49.029 82 2.7 82 11.5
2007-08-14 09:32:22 51°14.372 2°49.099 80.7 2.7 82 11.5
2007-08-14 09:33:22 51°14.381 2°49.167 78.3 2.7 77 11.4
2007-08-14 09:34:22 51°14.39 2°49.236 78.9 2.7 79 11.5
2007-08-14 09:35:21 51°14.398 2°49.304 76.9 2.6 75 11.5
2007-08-14 09:36:22 51°14.411 2°49.372 76.1 2.7 72 11.5
2007-08-14 09:37:22 51°14.422 2°49.44 77.1 2.7 75 11.6
2007-08-14 09:38:22 51°14.434 2°49.508 76 2.6 73 11.5
2007-08-14 09:39:22 51°14.448 2°49.576 74.3 2.6 72 11.6
2007-08-14 09:40:22 51°14.462 2°49.643 74.9 2.7 71 11.6
2007-08-14 09:41:22 51°14.478 2°49.709 72.1 2.7 68 11.7
2007-08-14 09:42:21 51°14.494 2°49.773 72.6 2.7 69 11.6
2007-08-14 09:43:22 51°14.501 2°49.853 88.4 3.3 90 11.5
2007-08-14 09:44:22 51°14.492 2°49.94 102.6 3.3 108 11.6
2007-08-14 09:45:22 51°14.466 2°49.998 127.4 2 144 11.2
2007-08-14 09:46:21 51°14.447 2°50.012 131.3 1 164 11
2007-08-14 09:47:22 51°14.432 2°50.016 132.2 0.7 184 11
2007-08-14 09:48:22 51°14.409 2°50.039 132.8 2.1 147 10.8
2007-08-14 09:49:22 51°14.387 2°50.058 130.8 1.5 144 10.8
2007-08-14 09:50:22 51°14.386 2°50.124 75.8 5.7 72 10.4
2007-08-14 09:51:22 51°14.456 2°50.35 58.7 11.1 51 10.4
2007-08-14 09:52:22 51°14.564 2°50.595 52.2 11.4 45 10.6
2007-08-14 09:53:22 51°14.648 2°50.807 72.3 6.4 74 11
2007-08-14 09:54:22 51°14.655 2°50.933 88.5 3.9 88 10.8
2007-08-14 09:55:22 51°14.661 2°51.029 87 3.9 93 10.7
2007-08-14 09:56:22 51°14.634 2°51.128 121.3 4.1 135 10.5
2007-08-14 09:57:22 51°14.571 2°51.154 177.2 4 191 10.2
2007-08-14 09:58:22 51°14.513 2°51.098 215.4 3.8 224 10.1
2007-08-14 09:59:22 51°14.479 2°51.03 225.3 2.9 236 10
2007-08-14 10:00:22 51°14.457 2°50.968 234.3 2.4 243 9.8
2007-08-14 10:01:22 51°14.443 2°50.913 240.4 2.2 250 10
2007-08-14 10:02:21 51°14.428 2°50.853 240.9 2.6 247 9.9
2007-08-14 10:03:22 51°14.407 2°50.786 236.8 2.9 241 9.8
2007-08-14 10:04:22 51°14.383 2°50.717 233.8 3 239 9.9
2007-08-14 10:05:22 51°14.357 2°50.649 231.2 3 238 9.9
2007-08-14 10:06:22 51°14.33 2°50.582 229.3 3 236 9.8
2007-08-14 10:07:22 51°14.301 2°50.517 227.4 3 236 9.8
2007-08-14 10:08:22 51°14.275 2°50.45 230.4 2.9 238 9.8
2007-08-14 10:09:22 51°14.251 2°50.383 232.8 2.9 242 9.7
2007-08-14 10:10:22 51°14.228 2°50.316 235.2 2.8 242 9.8
2007-08-14 10:11:21 51°14.207 2°50.25 235.4 2.9 242 9.7
2007-08-14 10:12:21 51°14.184 2°50.183 234.7 2.9 243 9.6
2007-08-14 10:13:21 51°14.162 2°50.117 233.2 2.8 239 9.6
2007-08-14 10:14:21 51°14.139 2°50.053 232.2 2.8 240 9.6
2007-08-14 10:15:21 51°14.116 2°49.992 230.3 2.7 238 9.6
2007-08-14 10:16:21 51°14.092 2°49.931 228.9 2.7 237 9.4
2007-08-14 10:17:21 51°14.067 2°49.871 228.2 2.7 236 9.2
2007-08-14 10:18:22 51°14.042 2°49.809 228.6 2.8 237 9.4
2007-08-14 10:19:21 51°14.018 2°49.749 229.8 2.7 238 9.4
2007-08-14 10:20:21 51°13.995 2°49.687 232.5 2.7 243 9.4
2007-08-14 10:21:21 51°13.974 2°49.626 233.6 2.6 240 9.3
2007-08-14 10:22:21 51°13.952 2°49.563 235.2 2.7 240 9.5
2007-08-14 10:23:21 51°13.929 2°49.499 233.9 2.8 239 9.3
2007-08-14 10:24:21 51°13.906 2°49.436 232.9 2.8 240 9.5
2007-08-14 10:25:21 51°13.883 2°49.372 235.2 2.9 242 9.5
2007-08-14 10:26:21 51°13.862 2°49.292 252.9 3.5 255 9.5
2007-08-14 10:27:21 51°13.864 2°49.202 292 3.4 288 9.6
2007-08-14 10:28:21 51°13.892 2°49.127 323.9 2.9 315 9.9
2007-08-14 10:29:21 51°13.925 2°49.093 354.8 2.1 338 10.4
2007-08-14 10:30:21 51°13.955 2°49.082 9.8 1.7 349 10.6
2007-08-14 10:31:21 51°13.982 2°49.074 8.7 1.6 347 10.9
2007-08-14 10:32:21 51°14.006 2°49.064 4.1 1.5 345 11.1
2007-08-14 10:33:21 51°14.034 2°49.049 355.6 2.7 342 11.2
2007-08-14 10:34:21 51°14.105 2°49.027 1.6 5.4 358 11.6
2007-08-14 10:35:21 51°14.176 2°49.072 42 4.4 36 11.9
2007-08-14 10:36:22 51°14.222 2°49.17 73.3 4.5 72 11.9
2007-08-14 10:37:21 51°14.235 2°49.265 83.9 3.3 80 11.9
2007-08-14 10:38:21 51°14.244 2°49.341 83.7 2.7 78 11.9
2007-08-14 10:39:21 51°14.259 2°49.403 74 2.4 66 11.8
2007-08-14 10:40:21 51°14.276 2°49.464 75.8 2.6 68 11.9
2007-08-14 10:41:21 51°14.292 2°49.529 75.8 2.7 70 11.9
2007-08-14 10:42:21 51°14.309 2°49.595 74.7 2.7 66 11.9
2007-08-14 10:43:21 51°14.325 2°49.663 75.7 2.8 69 11.9
2007-08-14 10:44:21 51°14.342 2°49.732 76 2.8 69 11.8
2007-08-14 10:45:21 51°14.36 2°49.8 74.7 2.8 67 11.9
2007-08-14 10:46:21 51°14.379 2°49.868 73.9 2.8 66 11.8
2007-08-14 10:47:21 51°14.398 2°49.936 72.4 2.8 65 11.7
2007-08-14 10:48:21 51°14.417 2°50.004 70.8 2.9 64 11.7
2007-08-14 10:49:21 51°14.438 2°50.074 69.5 2.9 64 11.6
2007-08-14 10:50:21 51°14.462 2°50.142 65.3 3 58 11.8
2007-08-14 10:51:21 51°14.486 2°50.21 70.5 2.9 64 11.9
2007-08-14 10:52:22 51°14.508 2°50.283 73.7 3 67 11.9
2007-08-14 10:53:21 51°14.528 2°50.354 72.5 3 66 11.8
2007-08-14 10:54:22 51°14.549 2°50.429 72.5 3 64 12
2007-08-14 10:55:21 51°14.571 2°50.5 71.9 3 62 12.1
2007-08-14 10:56:21 51°14.595 2°50.571 71.5 3.1 61 12
2007-08-14 10:57:21 51°14.616 2°50.645 79.7 3 71 12
2007-08-14 10:58:21 51°14.629 2°50.723 87.8 3.3 81 11.9
2007-08-14 10:59:21 51°14.63 2°50.815 102.3 3.6 95 11.8
2007-08-14 11:00:21 51°14.618 2°50.902 115.8 2.7 107 11.7
2007-08-14 11:01:21 51°14.607 2°50.957 123 1.9 106 11.6
2007-08-14 11:02:21 51°14.597 2°51.004 126.7 2.8 118 11.4
2007-08-14 11:03:21 51°14.56 2°51.076 140.1 3.4 133 11.3
2007-08-14 11:04:21 51°14.525 2°51.134 143.8 2.3 131 11.1
2007-08-14 11:05:21 51°14.509 2°51.172 142 1.3 118 10.9
2007-08-14 11:06:21 51°14.489 2°51.206 161.4 2.9 159 10.7
2007-08-14 11:07:21 51°14.439 2°51.138 255 5.9 262 10.7
2007-08-14 11:08:22 51°14.453 2°51.018 289.5 3.7 287 10.9
2007-08-14 11:09:21 51°14.467 2°50.948 280.5 2.1 286 11
2007-08-14 11:10:22 51°14.476 2°50.908 275.8 1.2 293 11.3
2007-08-14 11:11:21 51°14.484 2°50.881 278.9 1.1 301 11.2
2007-08-14 11:12:22 51°14.496 2°50.853 287.3 1.5 305 11.2
2007-08-14 11:13:21 51°14.515 2°50.813 299.1 2.6 311 11.6
2007-08-14 11:14:21 51°14.568 2°50.781 359.6 4.8 8 11.9
2007-08-14 11:15:21 51°14.618 2°50.849 66.2 3.7 61 12.1
2007-08-14 11:16:21 51°14.634 2°50.986 94.5 7.9 88 12
2007-08-14 11:17:22 51°14.637 2°51.271 89.8 12.3 85 11.6
2007-08-14 11:18:21 51°14.663 2°51.603 84.3 13 81 11.3
2007-08-14 11:19:21 51°14.697 2°51.941 84 13 81 11.1
2007-08-14 11:20:21 51°14.718 2°52.281 89.4 12.8 85 10.9
2007-08-14 11:21:21 51°14.744 2°52.62 87.9 13 85 10.8
2007-08-14 11:22:21 51°14.742 2°52.961 97.7 12.9 93 10.8
2007-08-14 11:23:21 51°14.731 2°53.304 97.9 13 95 10.7
2007-08-14 11:24:22 51°14.694 2°53.648 105.1 12.9 102 11.9
2007-08-14 11:25:21 51°14.635 2°53.973 111.8 13 107 12.8
2007-08-14 11:26:22 51°14.567 2°54.307 113.2 13 108 12.6
2007-08-14 11:27:21 51°14.5 2°54.629 114 13 111 12.3
2007-08-14 11:28:22 51°14.414 2°54.946 121.7 11.6 118 12.3
2007-08-14 11:29:21 51°14.337 2°55.137 134.3 6.9 130 12.3
2007-08-14 11:30:22 51°14.269 2°55.259 137.3 5.5 135 12.3
2007-08-14 11:31:21 51°14.206 2°55.347 147.1 4.7 143 12.3
2007-08-14 11:32:22 51°14.137 2°55.423 152.5 6.2 154 12.3
2007-08-14 11:33:22 51°14.034 2°55.493 158.5 6.5 158 12.2
2007-08-14 11:34:21 51°13.938 2°55.559 158.1 6.4 156 12.5
2007-08-14 11:35:22 51°13.84 2°55.629 156.7 6.3 155 12.7
2007-08-14 11:36:22 51°13.755 2°55.72 133.8 5.8 134 -999
2007-08-14 11:37:22 51°13.698 2°55.833 129.5 5 127 -999
2007-08-14 11:38:22 51°13.655 2°55.933 128.3 4.4 125 -999
2007-08-14 11:39:22 51°13.621 2°56.028 115.2 3.6 114 -999
2007-08-14 11:40:22 51°13.608 2°56.085 123.6 1 109 -999
2007-08-14 11:41:22 51°13.603 2°56.095 122.6 0.4 122 -999
2007-08-14 11:42:22 51°13.602 2°56.098 121.3 -999 54 -999
2007-08-14 11:43:22 51°13.603 2°56.098 123.9 0.1 290 -999
2007-08-14 11:44:22 51°13.603 2°56.098 124.8 -999 172 -999
2007-08-14 11:45:22 51°13.603 2°56.099 124.6 0.1 321 -999